Time;durP1;ratioP1;P1;durP2;ratioP2;P2;SDS_P1;SDS_P2;PMS_P1;PMS_P2;Temp;Humidity;BMP_temperature;BMP_pressure;BME280_temperature;BME280_humidity;BME280_pressure;Samples;Min_cycle;Max_cycle;Signal;HPM_P1;HPM_P2
2023/10/10 00:02:19;;;;;;;1999.90;999.90;;;16.10;99.90;;;;;;4897216;29;20072;-76
2023/10/10 00:04:49;;;;;;;1999.90;999.90;;;16.10;99.90;;;;;;4897831;29;20104;-71
2023/10/10 00:07:15;;;;;;;1999.90;999.90;;;16.10;99.90;;;;;;4880255;29;20129;-71
2023/10/10 00:09:44;;;;;;;1999.90;999.90;;;16.10;99.90;;;;;;4884318;29;20096;-77
2023/10/10 00:12:18;;;;;;;1999.90;999.90;;;16.00;99.90;;;;;;4897905;29;20029;-77
2023/10/10 00:14:50;;;;;;;1999.90;999.90;;;15.90;99.90;;;;;;4897619;29;20629;-77
2023/10/10 00:17:16;;;;;;;1999.90;999.90;;;15.90;99.90;;;;;;4897561;29;20119;-71
2023/10/10 00:19:53;;;;;;;1999.90;999.90;;;15.90;99.90;;;;;;4897644;29;20044;-71
2023/10/10 00:22:26;;;;;;;1999.90;999.90;;;15.80;99.90;;;;;;4897449;29;20050;-72
2023/10/10 00:24:52;;;;;;;1999.90;999.90;;;15.80;99.90;;;;;;4897860;29;20515;-77
2023/10/10 00:27:21;;;;;;;1999.90;999.90;;;15.80;99.90;;;;;;4910220;29;20040;-77
2023/10/10 00:29:48;;;;;;;1999.90;999.90;;;15.80;99.90;;;;;;4918201;29;20028;-71
2023/10/10 00:32:17;;;;;;;1999.90;999.90;;;15.70;99.90;;;;;;4918390;29;20077;-77
2023/10/10 00:34:50;;;;;;;1999.90;999.90;;;15.70;99.90;;;;;;4918224;29;20511;-77
2023/10/10 00:37:20;;;;;;;;;;;15.70;99.90;;;;;;4918959;29;20112;-77
2023/10/10 00:39:52;;;;;;;1999.90;999.90;;;15.70;99.90;;;;;;4918251;29;20010;-76
2023/10/10 00:42:36;;;;;;;1999.90;999.90;;;15.60;99.90;;;;;;4918104;29;20189;-71
2023/10/10 00:45:04;;;;;;;1999.90;999.90;;;15.60;99.90;;;;;;4902935;29;20052;-71
2023/10/10 00:47:38;;;;;;;1999.90;999.90;;;15.60;99.90;;;;;;4917237;29;20062;-71
2023/10/10 00:50:08;;;;;;;1999.90;999.90;;;15.50;99.90;;;;;;4918417;29;20115;-71
2023/10/10 00:52:38;;;;;;;1999.90;999.90;;;15.50;99.90;;;;;;4917122;29;20107;-76
2023/10/10 00:55:04;;;;;;;1999.90;999.90;;;15.50;99.90;;;;;;4916551;29;20403;-76
2023/10/10 00:57:35;;;;;;;1999.90;999.90;;;15.40;99.90;;;;;;4917993;29;20032;-72
2023/10/10 01:00:07;;;;;;;1999.90;999.90;;;15.50;99.90;;;;;;4915594;29;20028;-71
2023/10/10 01:02:34;;;;;;;1999.90;999.90;;;15.50;99.90;;;;;;4917660;29;20035;-71
2023/10/10 01:05:12;;;;;;;1999.90;999.90;;;15.40;99.90;;;;;;4917761;29;20036;-74
2023/10/10 01:07:38;;;;;;;1999.90;999.90;;;15.40;99.90;;;;;;4916059;29;20038;-71
2023/10/10 01:10:16;;;;;;;1999.90;999.90;;;15.40;99.90;;;;;;4917473;29;20024;-71
2023/10/10 01:12:43;;;;;;;1999.90;999.90;;;15.40;99.90;;;;;;4916887;29;20031;-71
2023/10/10 01:15:24;;;;;;;1999.90;999.90;;;15.40;99.90;;;;;;4917287;29;20035;-76
2023/10/10 01:17:51;;;;;;;1999.90;999.90;;;15.40;99.90;;;;;;4916899;29;20039;-71
2023/10/10 01:23:17;;;;;;;1999.90;999.90;;;15.30;99.90;;;;;;4904823;29;20100;-71
2023/10/10 01:25:44;;;;;;;1999.90;999.90;;;15.30;99.90;;;;;;4917576;29;20032;-71
2023/10/10 01:31:04;;;;;;;1999.90;999.90;;;15.20;99.90;;;;;;4917510;29;20032;-71
2023/10/10 01:33:47;;;;;;;1999.90;999.90;;;15.20;99.90;;;;;;4917384;29;20488;-77
2023/10/10 01:36:16;;;;;;;;;;;15.20;99.90;;;;;;4917847;29;20039;-71
2023/10/10 01:39:07;;;;;;;1999.90;999.90;;;15.10;99.90;;;;;;4917190;29;19957;-71
2023/10/10 01:41:38;;;;;;;1999.90;999.90;;;15.10;99.90;;;;;;4917427;29;20038;-71
2023/10/10 01:44:11;;;;;;;1999.90;999.90;;;15.10;99.90;;;;;;4917212;29;20153;-76
2023/10/10 01:46:37;;;;;;;1999.90;999.90;;;15.10;99.90;;;;;;4916850;29;20559;-71
2023/10/10 01:49:02;;;;;;;1999.90;999.90;;;15.10;99.90;;;;;;4916646;29;20111;-71
2023/10/10 01:51:33;;;;;;;1999.90;999.90;;;15.20;99.90;;;;;;4917223;29;20480;-71
2023/10/10 01:53:59;;;;;;;1999.90;999.90;;;15.10;99.90;;;;;;4916218;29;20028;-76
2023/10/10 01:56:27;;;;;;;1999.90;999.90;;;15.10;99.90;;;;;;4917115;29;20068;-76
2023/10/10 01:58:54;;;;;;;1999.90;999.90;;;15.10;99.90;;;;;;4917065;29;20025;-76
2023/10/10 02:01:20;;;;;;;1999.90;999.90;;;15.20;99.90;;;;;;4916556;29;20035;-71
2023/10/10 02:03:47;;;;;;;1999.90;999.90;;;15.20;99.90;;;;;;4917121;29;20067;-76
2023/10/10 02:06:24;;;;;;;1999.90;999.90;;;15.20;99.90;;;;;;4907316;29;20398;-73
2023/10/10 02:08:51;;;;;;;1999.90;999.90;;;15.30;99.90;;;;;;4897756;29;20060;-71
2023/10/10 02:11:21;;;;;;;1999.90;999.90;;;15.20;99.90;;;;;;4902093;29;20016;-76
2023/10/10 02:13:47;;;;;;;1999.90;999.90;;;15.30;99.90;;;;;;4916673;29;20108;-71
2023/10/10 02:16:17;;;;;;;1999.90;999.90;;;15.20;99.90;;;;;;4916696;29;20020;-71
2023/10/10 02:18:51;;;;;;;1999.90;999.90;;;15.20;99.90;;;;;;4900738;29;20106;-76
2023/10/10 02:21:31;;;;;;;1999.90;999.90;;;15.20;99.90;;;;;;4899367;29;20028;-76
2023/10/10 02:24:19;;;;;;;1999.90;999.90;;;15.20;99.90;;;;;;4918493;29;20028;-76
2023/10/10 02:26:51;;;;;;;1999.90;999.90;;;15.30;99.90;;;;;;4920532;29;20025;-71
2023/10/10 02:29:19;;;;;;;1999.90;999.90;;;15.40;99.90;;;;;;4920654;29;20052;-71
2023/10/10 02:31:48;;;;;;;1999.90;999.90;;;15.40;99.90;;;;;;4920420;29;20020;-71
2023/10/10 02:34:14;;;;;;;1999.90;999.90;;;15.50;99.90;;;;;;4920658;29;20472;-76
2023/10/10 02:36:41;;;;;;;1999.90;999.90;;;15.50;99.90;;;;;;4920204;29;20035;-77
2023/10/10 02:41:48;;;;;;;1999.90;999.90;;;15.40;99.90;;;;;;4939498;29;20059;-71
2023/10/10 02:44:26;;;;;;;1999.90;999.90;;;15.40;99.90;;;;;;4939210;29;20056;-76
2023/10/10 02:46:54;;;;;;;1999.90;999.90;;;15.50;99.90;;;;;;4925232;29;20517;-76
2023/10/10 02:49:29;;;;;;;1999.90;999.90;;;15.40;99.90;;;;;;4920173;29;20028;-71
2023/10/10 02:51:57;;;;;;;1999.90;999.90;;;15.40;99.90;;;;;;4919900;29;20024;-75
2023/10/10 02:54:34;;;;;;;1999.90;999.90;;;15.40;99.90;;;;;;4919372;29;20036;-76
2023/10/10 02:57:27;;;;;;;1999.90;999.90;;;15.30;99.90;;;;;;4920073;29;20053;-71
2023/10/10 03:00:15;;;;;;;1999.90;999.90;;;15.30;99.90;;;;;;4919976;29;20387;-76
2023/10/10 03:02:49;;;;;;;1999.90;999.90;;;15.30;99.90;;;;;;4918940;29;20032;-76
2023/10/10 03:05:20;;;;;;;1999.90;999.90;;;15.30;99.90;;;;;;4917864;29;20580;-71
2023/10/10 03:07:51;;;;;;;1999.90;999.90;;;15.30;99.90;;;;;;4900237;29;20055;-70
2023/10/10 03:10:22;;;;;;;1999.90;999.90;;;15.20;99.90;;;;;;4901084;29;20035;-76
2023/10/10 03:12:51;;;;;;;1999.90;999.90;;;15.20;99.90;;;;;;4917229;29;20028;-76
2023/10/10 03:18:15;;;;;;;1999.90;999.90;;;15.20;99.90;;;;;;4920055;29;20039;-71
2023/10/10 03:20:51;;;;;;;1999.90;999.90;;;15.20;99.90;;;;;;4919556;29;20072;-71
2023/10/10 03:25:54;;;;;;;1999.90;999.90;;;15.30;99.90;;;;;;4919744;29;20076;-76
2023/10/10 03:28:29;;;;;;;1999.90;999.90;;;15.20;99.90;;;;;;4919527;29;20024;-77
2023/10/10 05:25:24;;;;;;;1999.90;999.90;;;14.00;99.90;;;;;;4912952;29;20032;-77
2023/10/10 05:27:51;;;;;;;1999.90;999.90;;;14.00;99.90;;;;;;4897866;29;20028;-76
2023/10/10 05:30:39;;;;;;;1999.90;999.90;;;14.00;99.90;;;;;;4897673;29;20029;-72
2023/10/10 05:33:06;;;;;;;1999.90;999.90;;;13.90;99.90;;;;;;4908311;29;20032;-71
2023/10/10 05:35:33;;;;;;;1999.90;999.90;;;13.90;99.90;;;;;;4916973;29;20042;-71
2023/10/10 05:38:00;;;;;;;1999.90;999.90;;;13.90;99.90;;;;;;4934537;29;20043;-71
2023/10/10 05:40:26;;;;;;;1999.90;999.90;;;13.90;99.90;;;;;;4928669;29;20059;-77
2023/10/10 05:42:52;;;;;;;1999.90;999.90;;;13.90;99.90;;;;;;4898094;29;20035;-71
2023/10/10 05:45:21;;;;;;;1999.90;999.90;;;14.00;99.90;;;;;;4936795;29;20435;-71
2023/10/10 05:47:47;;;;;;;1999.90;999.90;;;14.00;99.90;;;;;;4928631;29;20042;-72
2023/10/10 05:50:13;;;;;;;1999.90;999.90;;;14.00;99.90;;;;;;4923182;29;20039;-71
2023/10/10 05:52:43;;;;;;;1999.90;999.90;;;14.00;99.90;;;;;;4934359;29;20446;-77
2023/10/10 05:55:10;;;;;;;1999.90;999.90;;;14.00;99.90;;;;;;4943810;29;20460;-71
2023/10/10 05:57:39;;;;;;;1999.90;999.90;;;14.10;99.90;;;;;;4927798;29;20027;-72
2023/10/10 06:00:10;;;;;;;1999.90;999.90;;;14.10;99.90;;;;;;4939660;29;20074;-71
2023/10/10 06:02:47;;;;;;;1999.90;999.90;;;14.20;99.90;;;;;;4915938;29;20036;-76
2023/10/10 06:05:17;;;;;;;1999.90;999.90;;;14.20;99.90;;;;;;4923793;29;20065;-71
2023/10/10 06:07:43;;;;;;;1999.90;999.90;;;14.20;99.90;;;;;;4932182;29;20116;-72
2023/10/10 06:10:16;;;;;;;1999.90;999.90;;;14.20;99.90;;;;;;4917614;29;20051;-71
2023/10/10 06:12:46;;;;;;;1999.90;999.90;;;14.20;99.90;;;;;;4932922;29;20106;-77
2023/10/10 06:15:12;;;;;;;1999.90;999.90;;;14.20;99.90;;;;;;4935014;29;20032;-71
2023/10/10 06:17:41;;;;;;;1999.90;999.90;;;14.20;99.90;;;;;;4932661;29;20035;-76
2023/10/10 06:20:07;;;;;;;1999.90;999.90;;;14.20;99.90;;;;;;4920699;29;20080;-77
2023/10/10 06:22:33;;;;;;;1999.90;999.90;;;14.30;99.90;;;;;;4927839;29;20028;-71
2023/10/10 06:24:58;;;;;;;1999.90;999.90;;;14.40;99.90;;;;;;4915017;29;20087;-77
2023/10/10 06:27:36;;;;;;;1999.90;999.90;;;14.40;99.90;;;;;;4918203;29;20059;-71
2023/10/10 06:30:04;;;;;;;1999.90;999.90;;;14.40;99.90;;;;;;4933068;29;20039;-77
2023/10/10 06:32:31;;;;;;;1999.90;999.90;;;14.50;99.90;;;;;;4934162;29;20028;-77
2023/10/10 06:37:45;;;;;;;1999.90;999.90;;;14.50;99.90;;;;;;4936176;29;20035;-72
2023/10/10 06:40:11;;;;;;;1999.90;999.90;;;14.60;99.90;;;;;;4933286;29;20033;-71
2023/10/10 06:42:37;;;;;;;1999.90;999.90;;;14.60;99.90;;;;;;4932972;29;20027;-77
2023/10/10 06:45:07;;;;;;;1999.90;999.90;;;14.60;99.90;;;;;;4918205;29;20055;-77
2023/10/10 06:47:34;;;;;;;1999.90;999.90;;;14.60;99.90;;;;;;4914030;29;20048;-71
2023/10/10 06:50:01;;;;;;;1999.90;999.90;;;14.60;99.90;;;;;;4909891;29;20024;-72
2023/10/10 06:52:30;;;;;;;1999.90;999.90;;;14.70;99.90;;;;;;4906009;29;20032;-72
2023/10/10 06:54:56;;;;;;;1999.90;999.90;;;14.80;99.90;;;;;;4908106;29;20087;-74
2023/10/10 06:57:35;;;;;;;1999.90;999.90;;;14.90;99.90;;;;;;4900699;29;20579;-77
2023/10/10 07:00:09;;;;;;;1999.90;999.90;;;15.00;99.90;;;;;;4906465;29;20404;-71
2023/10/10 07:02:40;;;;;;;1999.90;999.90;;;15.10;99.90;;;;;;4911693;29;20042;-71
2023/10/10 07:05:07;;;;;;;1999.90;999.90;;;15.20;99.90;;;;;;4912934;29;20127;-71
2023/10/10 07:07:37;;;;;;;1999.90;999.90;;;15.30;99.90;;;;;;4901296;29;20544;-77
2023/10/10 07:10:09;;;;;;;1999.90;999.90;;;15.30;99.90;;;;;;4894939;29;20040;-76
2023/10/10 07:12:35;;;;;;;1999.90;999.90;;;15.40;99.90;;;;;;4920064;29;20024;-71
2023/10/10 07:15:06;;;;;;;1999.90;999.90;;;15.40;99.90;;;;;;4920526;29;20051;-72
2023/10/10 07:17:32;;;;;;;1999.90;999.90;;;15.40;99.90;;;;;;4908993;29;20115;-77
2023/10/10 07:22:34;;;;;;;1999.90;999.90;;;15.40;99.90;;;;;;4913467;29;20492;-76
2023/10/10 07:25:07;;;;;;;1999.90;999.90;;;15.40;99.90;;;;;;4903787;29;20842;-72
2023/10/10 07:27:40;;;;;;;1999.90;999.90;;;15.40;99.90;;;;;;4919570;29;20043;-71
2023/10/10 07:30:16;;;;;;;1999.90;999.90;;;15.50;99.90;;;;;;4910114;29;20115;-72
2023/10/10 07:32:48;;;;;;;1999.90;999.90;;;15.70;99.90;;;;;;4901585;29;20036;-77
2023/10/10 07:35:25;;;;;;;1999.90;999.90;;;15.80;99.90;;;;;;4900120;29;20032;-77
2023/10/10 07:37:52;;;;;;;1999.90;999.90;;;16.00;99.90;;;;;;4916896;29;20028;-77
2023/10/10 07:42:49;;;;;;;1999.90;999.90;;;16.40;99.90;;;;;;4897863;29;20032;-72
2023/10/10 07:45:54;;;;;;;1999.90;999.90;;;16.40;99.90;;;;;;4904654;29;20117;-72
2023/10/10 07:50:47;;;;;;;1999.90;999.90;;;16.70;99.90;;;;;;4906573;29;20040;-78
2023/10/10 07:53:13;;;;;;;1999.90;999.90;;;16.80;99.90;;;;;;4908652;29;20395;-72
2023/10/10 07:58:27;;;;;;;1999.90;999.90;;;16.80;99.90;;;;;;4914616;29;20068;-72
2023/10/10 08:01:08;;;;;;;1999.90;999.90;;;16.90;99.90;;;;;;4905816;29;20149;-77
2023/10/10 08:03:34;;;;;;;1999.90;999.90;;;16.90;99.90;;;;;;4898466;29;20036;-77
2023/10/10 08:05:59;;;;;;;1999.90;999.90;;;16.80;99.90;;;;;;4905290;29;20035;-71
2023/10/10 08:08:26;;;;;;;1999.90;999.90;;;16.90;99.90;;;;;;4910006;29;20032;-72
2023/10/10 08:10:51;;;;;;;1999.90;999.90;;;17.10;99.90;;;;;;4889641;29;20060;-76
2023/10/10 08:13:18;;;;;;;1999.90;999.90;;;17.70;99.90;;;;;;4902689;29;20058;-77
2023/10/10 08:23:31;;;;;;;1999.90;999.90;;;18.40;99.90;;;;;;4897783;29;20032;-78
2023/10/10 08:25:57;;;;;;;1999.90;999.90;;;19.00;99.90;;;;;;4897900;29;20036;-72
2023/10/10 08:28:23;;;;;;;1999.90;999.90;;;19.10;99.90;;;;;;4916256;29;20389;-72
2023/10/10 08:30:55;;;;;;;1999.90;999.90;;;19.30;99.90;;;;;;4914466;29;20028;-72
2023/10/10 08:33:20;;;;;;;1999.90;999.90;;;19.00;99.90;;;;;;4915146;29;20091;-72
2023/10/10 08:35:47;;;;;;;1999.90;999.90;;;19.50;99.90;;;;;;4915831;29;20032;-78
2023/10/10 08:38:19;;;;;;;1999.90;999.90;;;20.30;99.90;;;;;;4925629;29;20042;-73
2023/10/10 08:40:57;;;;;;;1999.90;999.90;;;21.00;99.90;;;;;;4913562;29;20573;-78
2023/10/10 08:43:28;;;;;;;1999.90;999.90;;;21.30;99.90;;;;;;4914543;29;20154;-72
2023/10/10 08:45:56;;;;;;;1999.90;999.90;;;22.00;99.90;;;;;;4909762;29;20036;-73
2023/10/10 08:48:26;;;;;;;1999.90;999.90;;;22.30;99.90;;;;;;4911269;29;20044;-78
2023/10/10 08:50:55;;;;;;;1999.90;999.90;;;23.00;99.90;;;;;;4903718;29;20071;-73
2023/10/10 08:53:22;;;;;;;1999.90;999.90;;;23.40;99.90;;;;;;4903472;29;20036;-78
2023/10/10 08:55:57;;;;;;;1999.90;999.90;;;22.80;99.90;;;;;;4896755;29;20029;-78
2023/10/10 08:58:23;;;;;;;1999.90;999.90;;;21.70;99.90;;;;;;4915342;29;20043;-78
2023/10/10 09:00:51;;;;;;;1999.90;999.90;;;22.10;99.90;;;;;;4911233;29;20028;-73
2023/10/10 09:03:17;;;;;;;1999.90;999.90;;;23.50;99.90;;;;;;4880499;29;20048;-77
2023/10/10 09:05:43;;;;;;;1999.90;999.90;;;23.60;99.90;;;;;;4914515;29;20035;-72
2023/10/10 09:08:16;;;;;;;1999.90;999.90;;;25.10;99.90;;;;;;4900050;29;20512;-78
2023/10/10 09:10:45;;;;;;;1999.90;999.90;;;25.50;99.90;;;;;;4909299;29;20091;-77
2023/10/10 09:13:11;;;;;;;1999.90;999.90;;;25.00;99.90;;;;;;4895543;29;20115;-73
2023/10/10 09:15:40;;;;;;;1999.90;999.90;;;26.10;99.90;;;;;;4914449;29;20102;-73
2023/10/10 09:18:19;;;;;;;1999.90;999.90;;;26.60;99.90;;;;;;4914712;29;20043;-78
2023/10/10 09:20:46;;;;;;;1999.90;999.90;;;26.10;99.90;;;;;;4900338;29;20032;-78
2023/10/10 09:23:32;;;;;;;1999.90;999.90;;;24.80;99.90;;;;;;4913965;29;20040;-73
2023/10/10 09:26:29;;;;;;;1999.90;999.90;;;23.40;99.90;;;;;;4878111;29;20104;-72
2023/10/10 09:29:03;;;;;;;1999.90;999.90;;;22.60;99.90;;;;;;4878834;29;20424;-78
2023/10/10 09:31:31;;;;;;;1999.90;999.90;;;22.00;99.90;;;;;;4878960;29;20500;-78
2023/10/10 09:34:02;;;;;;;1999.90;999.90;;;21.60;99.90;;;;;;4912867;29;20028;-78
2023/10/10 09:36:28;;;;;;;1999.90;999.90;;;21.40;99.90;;;;;;4913017;29;20127;-72
2023/10/10 09:39:08;;;;;;;1999.90;999.90;;;20.80;99.90;;;;;;4913756;29;20162;-73
2023/10/10 09:52:53;;;;;;;1999.90;999.90;;;20.40;99.90;;;;;;4881483;29;20135;-78
2023/10/10 09:58:01;;;;;;;1999.90;999.90;;;20.60;99.90;;;;;;4902045;29;20036;-78
2023/10/10 10:03:31;;;;;;;1999.90;999.90;;;20.60;99.90;;;;;;4911407;29;20039;-77
2023/10/10 10:06:27;;;;;;;1999.90;999.90;;;20.60;99.90;;;;;;4906709;29;20036;-77
2023/10/10 10:09:12;;;;;;;1999.90;999.90;;;20.60;99.90;;;;;;4894662;29;20088;-77
2023/10/10 10:12:11;;;;;;;1999.90;999.90;;;20.60;99.90;;;;;;4901953;29;20091;-75
2023/10/10 10:14:56;;;;;;;1999.90;999.90;;;20.70;99.90;;;;;;4913849;29;20036;-72
2023/10/10 10:17:49;;;;;;;1999.90;999.90;;;20.70;99.90;;;;;;4913220;29;20039;-72
2023/10/10 10:20:25;;;;;;;1999.90;999.90;;;20.90;99.90;;;;;;4911628;29;20100;-77
2023/10/10 10:22:54;;;;;;;1999.90;999.90;;;21.00;99.90;;;;;;4904780;29;20031;-77
2023/10/10 10:25:25;;;;;;;1999.90;999.90;;;21.00;99.90;;;;;;4903982;29;20044;-77
2023/10/10 10:28:00;;;;;;;1999.90;999.90;;;21.30;99.90;;;;;;4902696;29;20043;-72
2023/10/10 10:33:02;;;;;;;1999.90;999.90;;;21.10;99.90;;;;;;4904809;29;20496;-77
2023/10/10 10:39:17;;;;;;;1999.90;999.90;;;21.30;99.90;;;;;;4887459;29;20048;-77
2023/10/10 10:41:43;;;;;;;1999.90;999.90;;;21.20;99.90;;;;;;4895049;29;20029;-77
2023/10/10 10:44:12;;;;;;;1999.90;999.90;;;21.40;99.90;;;;;;4911210;29;20053;-72
2023/10/10 10:46:40;;;;;;;1999.90;999.90;;;21.60;99.90;;;;;;4917041;29;20033;-75
2023/10/10 10:49:12;;;;;;;1999.90;999.90;;;21.80;99.90;;;;;;4903960;29;20463;-77
2023/10/10 10:51:44;;;;;;;1999.90;999.90;;;22.20;99.90;;;;;;4909561;29;20024;-77
2023/10/10 10:54:35;;;;;;;1999.90;999.90;;;22.10;99.90;;;;;;4914066;29;20039;-72
2023/10/10 10:57:01;;;;;;;1999.90;999.90;;;21.90;99.90;;;;;;4914998;29;20032;-73
2023/10/10 10:59:35;;;;;;;1999.90;999.90;;;21.90;99.90;;;;;;4916260;29;20040;-77
2023/10/10 11:02:05;;;;;;;1999.90;999.90;;;21.90;99.90;;;;;;4912681;29;20055;-77
2023/10/10 11:07:00;;;;;;;1999.90;999.90;;;21.90;99.90;;;;;;4915143;29;20032;-72
2023/10/10 11:09:31;;;;;;;1999.90;999.90;;;22.10;99.90;;;;;;4914717;29;20036;-72
2023/10/10 11:12:05;;;;;;;1999.90;999.90;;;22.30;99.90;;;;;;4909758;29;20044;-77
2023/10/10 11:14:32;;;;;;;1999.90;999.90;;;22.40;99.90;;;;;;4914999;29;20060;-72
2023/10/10 11:16:58;;;;;;;1999.90;999.90;;;22.40;99.90;;;;;;4915556;29;20491;-72
2023/10/10 11:22:05;;;;;;;1999.90;999.90;;;22.50;99.90;;;;;;4911481;29;20135;-72
2023/10/10 11:24:32;;;;;;;1999.90;999.90;;;22.70;99.90;;;;;;4915237;29;20060;-77
2023/10/10 11:27:13;;;;;;;1999.90;999.90;;;22.80;99.90;;;;;;4911909;29;20494;-77
2023/10/10 11:29:50;;;;;;;1999.90;999.90;;;23.00;99.90;;;;;;4907477;29;20052;-77
2023/10/10 11:32:24;;;;;;;1999.90;999.90;;;23.10;99.90;;;;;;4905702;29;20024;-72
2023/10/10 11:37:59;;;;;;;1999.90;999.90;;;23.20;99.90;;;;;;4908514;29;20078;-77
2023/10/10 11:43:05;;;;;;;1999.90;999.90;;;23.20;99.90;;;;;;4907470;29;20036;-78
2023/10/10 11:45:39;;;;;;;1999.90;999.90;;;23.60;99.90;;;;;;4909897;29;20055;-73
2023/10/10 11:48:12;;;;;;;1999.90;999.90;;;23.50;99.90;;;;;;4920875;29;20040;-77
2023/10/10 11:50:56;;;;;;;1999.90;999.90;;;23.60;99.90;;;;;;4913855;29;20087;-77
2023/10/10 11:53:23;;;;;;;1999.90;999.90;;;23.70;99.90;;;;;;4928235;29;20507;-72
2023/10/10 11:55:52;;;;;;;1999.90;999.90;;;23.40;99.90;;;;;;4916404;29;20031;-78
2023/10/10 11:58:18;;;;;;;1999.90;999.90;;;23.70;99.90;;;;;;4916446;29;20060;-77
2023/10/10 12:00:45;;;;;;;1999.90;999.90;;;24.00;99.90;;;;;;4927790;29;20043;-78
2023/10/10 12:06:00;;;;;;;1999.90;999.90;;;24.00;99.90;;;;;;4934715;29;20059;-77
2023/10/10 12:08:26;;;;;;;1999.90;999.90;;;23.90;99.90;;;;;;4934612;29;20050;-78
2023/10/10 12:11:02;;;;;;;1999.90;999.90;;;23.90;99.90;;;;;;4933914;29;20031;-73
2023/10/10 12:16:07;;;;;;;1999.90;999.90;;;24.30;99.90;;;;;;4929490;29;20911;-73
2023/10/10 12:18:43;;;;;;;1999.90;999.90;;;24.60;99.90;;;;;;4927316;29;20039;-78
2023/10/10 12:21:10;;;;;;;1999.90;999.90;;;24.60;99.90;;;;;;4934643;29;20589;-73
2023/10/10 12:23:36;;;;;;;1999.90;999.90;;;24.80;99.90;;;;;;4934697;29;20090;-76
2023/10/10 12:26:04;;;;;;;1999.90;999.90;;;25.00;99.90;;;;;;4930245;29;20028;-73
2023/10/10 12:28:30;;;;;;;1999.90;999.90;;;25.20;99.90;;;;;;4928533;29;20505;-78
2023/10/10 12:30:56;;;;;;;1999.90;999.90;;;25.20;99.90;;;;;;4947627;29;20031;-78
2023/10/10 12:33:23;;;;;;;1999.90;999.90;;;25.30;99.90;;;;;;4928616;29;20036;-73
2023/10/10 12:35:49;;;;;;;1999.90;999.90;;;25.50;99.90;;;;;;4918550;29;20032;-78
2023/10/10 12:38:20;;;;;;;1999.90;999.90;;;25.40;99.90;;;;;;4934505;29;20042;-73
2023/10/10 12:40:53;;;;;;;1999.90;999.90;;;25.30;99.90;;;;;;4912292;29;20240;-74
2023/10/10 12:43:24;;;;;;;;;;;25.20;99.90;;;;;;4915009;29;20495;-78
2023/10/10 12:46:00;;;;;;;1999.90;999.90;;;25.20;99.90;;;;;;4879298;29;20046;-78
2023/10/10 12:48:26;;;;;;;1999.90;999.90;;;25.50;99.90;;;;;;4902611;29;20918;-78
2023/10/10 12:50:52;;;;;;;1999.90;999.90;;;25.80;99.90;;;;;;4914943;29;20028;-73
2023/10/10 12:53:20;;;;;;;1999.90;999.90;;;25.60;99.90;;;;;;4913930;29;20141;-73
2023/10/10 12:55:55;;;;;;;1999.90;999.90;;;25.60;99.90;;;;;;4915084;29;20032;-78
2023/10/10 12:58:22;;;;;;;1999.90;999.90;;;25.40;99.90;;;;;;4913026;29;20039;-78
2023/10/10 13:00:52;;;;;;;1999.90;999.90;;;25.40;99.90;;;;;;4881042;29;20040;-77
2023/10/10 13:03:19;;;;;;;1999.90;999.90;;;25.30;99.90;;;;;;4896208;29;20071;-76
2023/10/10 13:05:52;;;;;;;1999.90;999.90;;;25.30;99.90;;;;;;4893745;29;20039;-74
2023/10/10 13:08:19;;;;;;;;;;;25.50;99.90;;;;;;4914389;29;20060;-78
2023/10/10 13:11:01;;;;;;;1999.90;999.90;;;25.60;99.90;;;;;;4897344;29;19914;-78
2023/10/10 13:13:27;;;;;;;1999.90;999.90;;;25.70;99.90;;;;;;4895228;29;20044;-78
2023/10/10 13:16:22;;;;;;;1999.90;999.90;;;25.60;99.90;;;;;;4901626;29;20052;-73
2023/10/10 13:18:48;;;;;;;1999.90;999.90;;;25.60;99.90;;;;;;4910046;29;20036;-73
2023/10/10 13:21:15;;;;;;;1999.90;999.90;;;25.90;99.90;;;;;;4906876;29;20056;-78
2023/10/10 13:23:43;;;;;;;1999.90;999.90;;;25.80;99.90;;;;;;4896055;29;20043;-78
2023/10/10 13:26:09;;;;;;;1999.90;999.90;;;26.00;99.90;;;;;;4912770;29;20500;-78
2023/10/10 13:28:36;;;;;;;1999.90;999.90;;;26.10;99.90;;;;;;4900239;29;20036;-74
2023/10/10 13:31:02;;;;;;;1999.90;999.90;;;26.10;99.90;;;;;;4894464;29;20100;-73
2023/10/10 13:33:28;;;;;;;1999.90;999.90;;;26.00;99.90;;;;;;4894326;29;20124;-73
2023/10/10 13:35:54;;;;;;;1999.90;999.90;;;26.00;99.90;;;;;;4899853;29;20032;-79
2023/10/10 13:38:19;;;;;;;1999.90;999.90;;;26.20;99.90;;;;;;4910354;29;20103;-73
2023/10/10 13:40:46;;;;;;;1999.90;999.90;;;26.30;99.90;;;;;;4906668;29;20496;-78
2023/10/10 13:43:17;;;;;;;1999.90;999.90;;;26.30;99.90;;;;;;4903850;29;20120;-73
2023/10/10 13:45:48;;;;;;;1999.90;999.90;;;26.10;99.90;;;;;;4907715;29;20048;-73
2023/10/10 13:48:22;;;;;;;1999.90;999.90;;;26.10;99.90;;;;;;4908703;29;20052;-79
2023/10/10 13:50:51;;;;;;;1999.90;999.90;;;26.20;99.90;;;;;;4909992;29;20056;-78
2023/10/10 13:53:17;;;;;;;1999.90;999.90;;;26.30;99.90;;;;;;4910816;29;20024;-79
2023/10/10 13:55:46;;;;;;;1999.90;999.90;;;26.10;99.90;;;;;;4912098;29;20115;-73
2023/10/10 13:58:13;;;;;;;1999.90;999.90;;;26.20;99.90;;;;;;4897222;29;20448;-73
2023/10/10 14:00:52;;;;;;;1999.90;999.90;;;26.30;99.90;;;;;;4907069;29;20058;-79
2023/10/10 14:03:28;;;;;;;1999.90;999.90;;;26.10;99.90;;;;;;4886271;29;20040;-78
2023/10/10 14:06:08;;;;;;;1999.90;999.90;;;25.90;99.90;;;;;;4900251;29;20095;-79
2023/10/10 14:08:33;;;;;;;1999.90;999.90;;;25.90;99.90;;;;;;4912977;29;20071;-79
2023/10/10 14:11:00;;;;;;;1999.90;999.90;;;25.90;99.90;;;;;;4910756;29;20036;-73
2023/10/10 14:13:28;;;;;;;1999.90;999.90;;;26.00;99.90;;;;;;4898522;29;20055;-79
2023/10/10 14:15:56;;;;;;;1999.90;999.90;;;25.90;99.90;;;;;;4908927;29;20119;-80
2023/10/10 14:18:41;;;;;;;1999.90;999.90;;;26.20;99.90;;;;;;4907517;29;20036;-79
2023/10/10 14:21:08;;;;;;;1999.90;999.90;;;26.10;99.90;;;;;;4897525;29;20028;-78
2023/10/10 14:23:38;;;;;;;1999.90;999.90;;;26.00;99.90;;;;;;4912799;29;20092;-73
2023/10/10 14:26:13;;;;;;;1999.90;999.90;;;26.10;99.90;;;;;;4893402;29;20040;-79
2023/10/10 14:28:51;;;;;;;1999.90;999.90;;;26.10;99.90;;;;;;4912121;29;20127;-79
2023/10/10 14:31:21;;;;;;;1999.90;999.90;;;26.20;99.90;;;;;;4910844;29;20373;-79
2023/10/10 14:33:48;;;;;;;1999.90;999.90;;;26.40;99.90;;;;;;4901834;29;20404;-73
2023/10/10 14:36:13;;;;;;;1999.90;999.90;;;26.90;99.90;;;;;;4902465;29;20039;-74
2023/10/10 14:38:46;;;;;;;1999.90;999.90;;;26.60;99.90;;;;;;4909734;29;20040;-73
2023/10/10 14:41:17;;;;;;;1999.90;999.90;;;26.70;99.90;;;;;;4902325;29;20033;-79
2023/10/10 14:43:54;;;;;;;1999.90;999.90;;;26.70;99.90;;;;;;4899562;29;20161;-77
2023/10/10 14:46:27;;;;;;;1999.90;999.90;;;27.00;99.90;;;;;;4903067;29;20044;-79
2023/10/10 14:49:06;;;;;;;1999.90;999.90;;;27.10;99.90;;;;;;4912167;29;20391;-73
2023/10/10 14:51:36;;;;;;;1999.90;999.90;;;27.00;99.90;;;;;;4913984;29;20024;-73
2023/10/10 14:54:12;;;;;;;1999.90;999.90;;;27.10;99.90;;;;;;4914313;29;20107;-73
2023/10/10 14:56:50;;;;;;;1999.90;999.90;;;27.50;99.90;;;;;;4907347;29;20648;-73
2023/10/10 14:59:31;;;;;;;1999.90;999.90;;;27.50;99.90;;;;;;4895150;29;20497;-73
2023/10/10 15:01:59;;;;;;;1999.90;999.90;;;27.90;99.90;;;;;;4907588;29;20028;-73
2023/10/10 15:04:29;;;;;;;1999.90;999.90;;;28.10;99.90;;;;;;4887134;29;20404;-73
2023/10/10 15:06:55;;;;;;;1999.90;999.90;;;28.60;99.90;;;;;;4902330;29;20512;-73
2023/10/10 15:09:25;;;;;;;1999.90;999.90;;;28.50;99.90;;;;;;4903881;29;20040;-73
2023/10/10 15:12:01;;;;;;;1999.90;999.90;;;28.50;99.90;;;;;;4903566;29;20036;-74
2023/10/10 15:14:31;;;;;;;1999.90;999.90;;;29.00;99.90;;;;;;4895675;29;20029;-74
2023/10/10 15:16:58;;;;;;;1999.90;999.90;;;30.50;99.90;;;;;;4895429;29;20389;-72
2023/10/10 15:19:25;;;;;;;1999.90;999.90;;;31.40;99.90;;;;;;4911518;29;20098;-77
2023/10/10 15:21:50;;;;;;;1999.90;999.90;;;31.80;99.50;;;;;;4914335;29;20020;-72
2023/10/10 15:24:17;;;;;;;1999.90;999.90;;;32.30;99.10;;;;;;4904134;29;20112;-72
2023/10/10 15:26:47;;;;;;;1999.90;999.90;;;32.00;96.70;;;;;;4884932;29;20103;-78
2023/10/10 15:29:15;;;;;;;1999.90;999.90;;;31.80;95.70;;;;;;4915215;29;20032;-72